sensor_id;sensor_type;location;lat;lon;timestamp;temperature;humidity
33827;DHT22;20128;45.582;5.298;2023-05-16T00:01:16;16.50;78.50
33827;DHT22;20128;45.582;5.298;2023-05-16T00:03:42;16.50;78.60
33827;DHT22;20128;45.582;5.298;2023-05-16T00:06:08;16.50;78.50
33827;DHT22;20128;45.582;5.298;2023-05-16T00:08:34;16.50;78.30
33827;DHT22;20128;45.582;5.298;2023-05-16T00:11:00;16.50;78.30
33827;DHT22;20128;45.582;5.298;2023-05-16T00:13:26;16.50;78.50
33827;DHT22;20128;45.582;5.298;2023-05-16T00:15:52;16.50;78.00
33827;DHT22;20128;45.582;5.298;2023-05-16T00:18:21;16.40;77.80
33827;DHT22;20128;45.582;5.298;2023-05-16T00:20:47;16.40;77.80
33827;DHT22;20128;45.582;5.298;2023-05-16T00:23:13;16.40;78.10
33827;DHT22;20128;45.582;5.298;2023-05-16T00:25:39;16.40;78.20
33827;DHT22;20128;45.582;5.298;2023-05-16T00:28:06;16.40;78.10
33827;DHT22;20128;45.582;5.298;2023-05-16T00:30:32;16.40;78.00
33827;DHT22;20128;45.582;5.298;2023-05-16T00:32:57;16.30;78.30
33827;DHT22;20128;45.582;5.298;2023-05-16T00:35:23;16.30;78.20
33827;DHT22;20128;45.582;5.298;2023-05-16T00:37:49;16.30;78.20
33827;DHT22;20128;45.582;5.298;2023-05-16T00:40:15;16.20;78.30
33827;DHT22;20128;45.582;5.298;2023-05-16T00:42:41;16.20;78.50
33827;DHT22;20128;45.582;5.298;2023-05-16T00:45:07;16.20;78.60
33827;DHT22;20128;45.582;5.298;2023-05-16T00:47:35;16.10;78.60
33827;DHT22;20128;45.582;5.298;2023-05-16T00:50:00;16.10;78.80
33827;DHT22;20128;45.582;5.298;2023-05-16T00:52:26;16.10;79.40
33827;DHT22;20128;45.582;5.298;2023-05-16T00:54:52;16.10;79.00
33827;DHT22;20128;45.582;5.298;2023-05-16T00:57:18;16.10;79.00
33827;DHT22;20128;45.582;5.298;2023-05-16T00:59:45;16.10;79.00
33827;DHT22;20128;45.582;5.298;2023-05-16T01:02:12;16.20;79.10
33827;DHT22;20128;45.582;5.298;2023-05-16T01:04:38;16.10;79.00
33827;DHT22;20128;45.582;5.298;2023-05-16T01:07:04;16.10;79.00
33827;DHT22;20128;45.582;5.298;2023-05-16T01:09:29;16.10;79.10
33827;DHT22;20128;45.582;5.298;2023-05-16T01:15:00;16.00;79.30
33827;DHT22;20128;45.582;5.298;2023-05-16T01:28:03;15.90;80.00
33827;DHT22;20128;45.582;5.298;2023-05-16T01:30:37;15.90;79.80
33827;DHT22;20128;45.582;5.298;2023-05-16T01:33:03;15.90;80.00
33827;DHT22;20128;45.582;5.298;2023-05-16T01:35:29;15.90;79.80
33827;DHT22;20128;45.582;5.298;2023-05-16T01:38:11;15.90;79.80
33827;DHT22;20128;45.582;5.298;2023-05-16T01:43:17;15.90;79.80
33827;DHT22;20128;45.582;5.298;2023-05-16T01:46:03;15.90;79.40
33827;DHT22;20128;45.582;5.298;2023-05-16T01:48:38;15.80;79.60
33827;DHT22;20128;45.582;5.298;2023-05-16T01:51:07;15.80;79.90
33827;DHT22;20128;45.582;5.298;2023-05-16T01:53:37;15.80;80.00
33827;DHT22;20128;45.582;5.298;2023-05-16T01:56:05;15.80;80.20
33827;DHT22;20128;45.582;5.298;2023-05-16T01:58:33;15.80;80.20
33827;DHT22;20128;45.582;5.298;2023-05-16T02:01:02;15.80;80.00
33827;DHT22;20128;45.582;5.298;2023-05-16T02:03:29;15.90;80.20
33827;DHT22;20128;45.582;5.298;2023-05-16T02:05:55;15.90;80.10
33827;DHT22;20128;45.582;5.298;2023-05-16T02:08:21;15.80;80.10
33827;DHT22;20128;45.582;5.298;2023-05-16T02:10:47;15.80;80.00
33827;DHT22;20128;45.582;5.298;2023-05-16T02:13:12;15.80;80.20
33827;DHT22;20128;45.582;5.298;2023-05-16T02:15:38;15.70;80.20
33827;DHT22;20128;45.582;5.298;2023-05-16T02:18:04;15.60;80.50
33827;DHT22;20128;45.582;5.298;2023-05-16T02:20:29;15.60;80.80
33827;DHT22;20128;45.582;5.298;2023-05-16T02:22:55;15.60;80.90
33827;DHT22;20128;45.582;5.298;2023-05-16T02:25:21;15.60;81.00
33827;DHT22;20128;45.582;5.298;2023-05-16T02:27:47;15.60;81.00
33827;DHT22;20128;45.582;5.298;2023-05-16T02:30:13;15.60;81.10
33827;DHT22;20128;45.582;5.298;2023-05-16T02:32:39;15.60;80.90
33827;DHT22;20128;45.582;5.298;2023-05-16T02:35:05;15.60;81.10
33827;DHT22;20128;45.582;5.298;2023-05-16T02:37:32;15.70;81.20
33827;DHT22;20128;45.582;5.298;2023-05-16T02:39:58;15.60;81.00
33827;DHT22;20128;45.582;5.298;2023-05-16T02:42:26;15.60;81.00
33827;DHT22;20128;45.582;5.298;2023-05-16T02:44:53;15.60;81.30
33827;DHT22;20128;45.582;5.298;2023-05-16T02:47:19;15.60;81.20
33827;DHT22;20128;45.582;5.298;2023-05-16T02:49:45;15.60;81.10
33827;DHT22;20128;45.582;5.298;2023-05-16T02:52:10;15.60;81.10
33827;DHT22;20128;45.582;5.298;2023-05-16T02:54:37;15.50;81.20
33827;DHT22;20128;45.582;5.298;2023-05-16T02:57:03;15.60;81.30
33827;DHT22;20128;45.582;5.298;2023-05-16T02:59:29;15.60;81.40
33827;DHT22;20128;45.582;5.298;2023-05-16T03:01:55;15.60;81.20
33827;DHT22;20128;45.582;5.298;2023-05-16T03:04:20;15.60;81.10
33827;DHT22;20128;45.582;5.298;2023-05-16T03:06:47;15.60;81.00
33827;DHT22;20128;45.582;5.298;2023-05-16T03:09:12;15.60;80.90
33827;DHT22;20128;45.582;5.298;2023-05-16T03:11:38;15.60;81.10
33827;DHT22;20128;45.582;5.298;2023-05-16T03:14:04;15.60;80.80
33827;DHT22;20128;45.582;5.298;2023-05-16T03:16:30;15.60;80.70
33827;DHT22;20128;45.582;5.298;2023-05-16T03:18:56;15.60;80.70
33827;DHT22;20128;45.582;5.298;2023-05-16T03:21:22;15.60;80.70
33827;DHT22;20128;45.582;5.298;2023-05-16T03:23:48;15.60;80.80
33827;DHT22;20128;45.582;5.298;2023-05-16T03:26:13;15.60;80.80
33827;DHT22;20128;45.582;5.298;2023-05-16T03:28:39;15.60;80.70
33827;DHT22;20128;45.582;5.298;2023-05-16T03:31:05;15.60;80.40
33827;DHT22;20128;45.582;5.298;2023-05-16T03:33:30;15.50;80.50
33827;DHT22;20128;45.582;5.298;2023-05-16T03:35:56;15.40;80.80
33827;DHT22;20128;45.582;5.298;2023-05-16T03:38:22;15.40;81.10
33827;DHT22;20128;45.582;5.298;2023-05-16T03:40:48;15.40;81.00
33827;DHT22;20128;45.582;5.298;2023-05-16T03:43:14;15.40;81.10
33827;DHT22;20128;45.582;5.298;2023-05-16T03:45:39;15.30;81.40
33827;DHT22;20128;45.582;5.298;2023-05-16T03:48:05;15.30;81.60
33827;DHT22;20128;45.582;5.298;2023-05-16T03:50:31;15.30;81.60
33827;DHT22;20128;45.582;5.298;2023-05-16T03:52:56;15.30;81.70
33827;DHT22;20128;45.582;5.298;2023-05-16T03:55:22;15.20;81.90
33827;DHT22;20128;45.582;5.298;2023-05-16T03:57:48;15.20;82.10
33827;DHT22;20128;45.582;5.298;2023-05-16T04:00:14;15.20;82.20
33827;DHT22;20128;45.582;5.298;2023-05-16T04:02:41;15.20;82.10
33827;DHT22;20128;45.582;5.298;2023-05-16T04:05:07;15.30;82.20
33827;DHT22;20128;45.582;5.298;2023-05-16T04:07:33;15.30;82.00
33827;DHT22;20128;45.582;5.298;2023-05-16T04:09:59;15.30;82.10
33827;DHT22;20128;45.582;5.298;2023-05-16T04:12:25;15.20;82.10
33827;DHT22;20128;45.582;5.298;2023-05-16T04:14:51;15.10;82.30
33827;DHT22;20128;45.582;5.298;2023-05-16T04:17:16;15.10;82.60
33827;DHT22;20128;45.582;5.298;2023-05-16T04:19:42;15.10;82.80
33827;DHT22;20128;45.582;5.298;2023-05-16T04:22:08;15.10;82.80
33827;DHT22;20128;45.582;5.298;2023-05-16T04:24:33;15.10;82.90
33827;DHT22;20128;45.582;5.298;2023-05-16T04:26:59;15.10;82.90
33827;DHT22;20128;45.582;5.298;2023-05-16T04:29:25;15.10;83.00
33827;DHT22;20128;45.582;5.298;2023-05-16T04:31:51;15.10;83.30
33827;DHT22;20128;45.582;5.298;2023-05-16T04:34:17;15.10;83.80
33827;DHT22;20128;45.582;5.298;2023-05-16T04:36:43;15.10;83.40
33827;DHT22;20128;45.582;5.298;2023-05-16T04:39:08;15.10;83.40
33827;DHT22;20128;45.582;5.298;2023-05-16T04:41:34;15.10;83.40
33827;DHT22;20128;45.582;5.298;2023-05-16T04:44:01;15.10;83.20
33827;DHT22;20128;45.582;5.298;2023-05-16T04:46:29;15.00;83.20
33827;DHT22;20128;45.582;5.298;2023-05-16T04:48:54;15.00;83.10
33827;DHT22;20128;45.582;5.298;2023-05-16T04:51:20;15.00;83.30
33827;DHT22;20128;45.582;5.298;2023-05-16T04:53:46;15.00;83.30
33827;DHT22;20128;45.582;5.298;2023-05-16T04:56:12;15.00;83.40
33827;DHT22;20128;45.582;5.298;2023-05-16T04:58:38;15.00;83.40
33827;DHT22;20128;45.582;5.298;2023-05-16T05:01:05;14.90;83.30
33827;DHT22;20128;45.582;5.298;2023-05-16T05:03:31;14.90;83.00
33827;DHT22;20128;45.582;5.298;2023-05-16T05:05:56;14.90;83.20
33827;DHT22;20128;45.582;5.298;2023-05-16T05:08:22;14.90;82.80
33827;DHT22;20128;45.582;5.298;2023-05-16T05:10:48;14.90;82.90
33827;DHT22;20128;45.582;5.298;2023-05-16T05:13:13;14.90;83.00
33827;DHT22;20128;45.582;5.298;2023-05-16T05:15:39;14.90;83.10
33827;DHT22;20128;45.582;5.298;2023-05-16T05:18:05;14.90;82.90
33827;DHT22;20128;45.582;5.298;2023-05-16T05:20:30;14.90;83.00
33827;DHT22;20128;45.582;5.298;2023-05-16T05:22:56;14.90;83.10
33827;DHT22;20128;45.582;5.298;2023-05-16T05:25:22;14.80;83.00
33827;DHT22;20128;45.582;5.298;2023-05-16T05:27:48;14.80;82.80
33827;DHT22;20128;45.582;5.298;2023-05-16T05:30:13;14.70;82.80
33827;DHT22;20128;45.582;5.298;2023-05-16T05:32:39;14.70;82.90
33827;DHT22;20128;45.582;5.298;2023-05-16T05:35:05;14.70;82.90
33827;DHT22;20128;45.582;5.298;2023-05-16T05:37:31;14.70;82.90
33827;DHT22;20128;45.582;5.298;2023-05-16T05:39:56;14.60;83.10
33827;DHT22;20128;45.582;5.298;2023-05-16T05:42:22;14.60;83.10
33827;DHT22;20128;45.582;5.298;2023-05-16T05:44:48;14.60;83.20
33827;DHT22;20128;45.582;5.298;2023-05-16T05:47:13;14.70;83.20
33827;DHT22;20128;45.582;5.298;2023-05-16T05:49:39;14.70;83.20
33827;DHT22;20128;45.582;5.298;2023-05-16T05:52:05;14.70;83.60
33827;DHT22;20128;45.582;5.298;2023-05-16T05:54:32;14.60;82.70
33827;DHT22;20128;45.582;5.298;2023-05-16T05:56:58;14.60;82.60
33827;DHT22;20128;45.582;5.298;2023-05-16T05:59:23;14.60;82.80
33827;DHT22;20128;45.582;5.298;2023-05-16T06:01:49;14.60;82.80
33827;DHT22;20128;45.582;5.298;2023-05-16T06:04:20;14.60;82.70
33827;DHT22;20128;45.582;5.298;2023-05-16T06:06:46;14.70;82.80
33827;DHT22;20128;45.582;5.298;2023-05-16T06:09:12;14.70;82.70
33827;DHT22;20128;45.582;5.298;2023-05-16T06:11:39;14.70;82.70
33827;DHT22;20128;45.582;5.298;2023-05-16T06:14:05;14.80;82.80
33827;DHT22;20128;45.582;5.298;2023-05-16T06:16:32;14.80;82.60
33827;DHT22;20128;45.582;5.298;2023-05-16T06:18:58;14.80;82.30
33827;DHT22;20128;45.582;5.298;2023-05-16T06:21:24;14.80;82.10
33827;DHT22;20128;45.582;5.298;2023-05-16T06:23:50;14.70;82.30
33827;DHT22;20128;45.582;5.298;2023-05-16T06:26:15;14.80;82.20
33827;DHT22;20128;45.582;5.298;2023-05-16T06:28:41;14.80;82.30
33827;DHT22;20128;45.582;5.298;2023-05-16T06:31:07;14.70;82.40
33827;DHT22;20128;45.582;5.298;2023-05-16T06:33:32;14.70;82.50
33827;DHT22;20128;45.582;5.298;2023-05-16T06:35:58;14.70;82.30
33827;DHT22;20128;45.582;5.298;2023-05-16T06:38:24;14.70;82.00
33827;DHT22;20128;45.582;5.298;2023-05-16T06:40:50;14.70;82.10
33827;DHT22;20128;45.582;5.298;2023-05-16T06:43:16;14.60;82.10
33827;DHT22;20128;45.582;5.298;2023-05-16T06:45:43;14.60;82.00
33827;DHT22;20128;45.582;5.298;2023-05-16T06:48:08;14.70;82.10
33827;DHT22;20128;45.582;5.298;2023-05-16T06:50:34;14.70;82.30
33827;DHT22;20128;45.582;5.298;2023-05-16T06:53:00;14.70;82.30
33827;DHT22;20128;45.582;5.298;2023-05-16T06:55:26;14.70;82.00
33827;DHT22;20128;45.582;5.298;2023-05-16T06:57:52;14.80;81.80
33827;DHT22;20128;45.582;5.298;2023-05-16T07:00:18;14.80;81.80
33827;DHT22;20128;45.582;5.298;2023-05-16T07:02:43;14.70;81.50
33827;DHT22;20128;45.582;5.298;2023-05-16T07:05:09;14.70;81.60
33827;DHT22;20128;45.582;5.298;2023-05-16T07:07:35;14.70;81.90
33827;DHT22;20128;45.582;5.298;2023-05-16T07:10:01;14.70;81.90
33827;DHT22;20128;45.582;5.298;2023-05-16T07:12:27;14.70;81.70
33827;DHT22;20128;45.582;5.298;2023-05-16T07:14:52;14.70;81.70
33827;DHT22;20128;45.582;5.298;2023-05-16T07:17:18;14.60;81.40
33827;DHT22;20128;45.582;5.298;2023-05-16T07:19:44;14.60;81.90
33827;DHT22;20128;45.582;5.298;2023-05-16T07:22:09;14.60;81.90
33827;DHT22;20128;45.582;5.298;2023-05-16T07:24:36;14.60;81.70
33827;DHT22;20128;45.582;5.298;2023-05-16T07:27:02;14.60;81.70
33827;DHT22;20128;45.582;5.298;2023-05-16T07:29:28;14.50;81.60
33827;DHT22;20128;45.582;5.298;2023-05-16T07:31:54;14.50;81.60
33827;DHT22;20128;45.582;5.298;2023-05-16T07:34:20;14.50;81.50
33827;DHT22;20128;45.582;5.298;2023-05-16T07:36:46;14.50;81.80
33827;DHT22;20128;45.582;5.298;2023-05-16T07:39:12;14.50;82.40
33827;DHT22;20128;45.582;5.298;2023-05-16T07:41:37;14.40;81.70
33827;DHT22;20128;45.582;5.298;2023-05-16T07:44:03;14.40;81.90
33827;DHT22;20128;45.582;5.298;2023-05-16T07:46:28;14.40;82.30
33827;DHT22;20128;45.582;5.298;2023-05-16T07:48:54;14.40;82.40
33827;DHT22;20128;45.582;5.298;2023-05-16T07:51:20;14.40;82.50
33827;DHT22;20128;45.582;5.298;2023-05-16T07:53:46;14.40;82.60
33827;DHT22;20128;45.582;5.298;2023-05-16T07:56:12;14.40;82.90
33827;DHT22;20128;45.582;5.298;2023-05-16T07:58:40;14.30;82.80
33827;DHT22;20128;45.582;5.298;2023-05-16T08:01:06;14.40;83.00
33827;DHT22;20128;45.582;5.298;2023-05-16T08:03:31;14.40;83.10
33827;DHT22;20128;45.582;5.298;2023-05-16T08:05:57;14.40;83.20
33827;DHT22;20128;45.582;5.298;2023-05-16T08:08:23;14.40;83.40
33827;DHT22;20128;45.582;5.298;2023-05-16T08:10:48;14.40;83.30
33827;DHT22;20128;45.582;5.298;2023-05-16T08:13:14;14.30;83.40
33827;DHT22;20128;45.582;5.298;2023-05-16T08:15:39;14.40;83.60
33827;DHT22;20128;45.582;5.298;2023-05-16T08:18:12;14.40;83.70
33827;DHT22;20128;45.582;5.298;2023-05-16T08:20:39;14.30;83.90
33827;DHT22;20128;45.582;5.298;2023-05-16T08:23:06;14.30;83.90
33827;DHT22;20128;45.582;5.298;2023-05-16T08:25:32;14.30;83.80
33827;DHT22;20128;45.582;5.298;2023-05-16T08:27:57;14.30;84.10
33827;DHT22;20128;45.582;5.298;2023-05-16T08:30:25;14.30;84.10
33827;DHT22;20128;45.582;5.298;2023-05-16T08:32:51;14.20;84.00
33827;DHT22;20128;45.582;5.298;2023-05-16T08:35:16;14.20;84.30
33827;DHT22;20128;45.582;5.298;2023-05-16T08:37:42;14.20;84.60
33827;DHT22;20128;45.582;5.298;2023-05-16T08:40:10;14.20;84.90
33827;DHT22;20128;45.582;5.298;2023-05-16T08:42:36;14.20;84.20
33827;DHT22;20128;45.582;5.298;2023-05-16T08:45:02;14.10;84.30
33827;DHT22;20128;45.582;5.298;2023-05-16T08:47:30;14.10;84.50
33827;DHT22;20128;45.582;5.298;2023-05-16T08:49:57;14.10;84.20
33827;DHT22;20128;45.582;5.298;2023-05-16T08:52:26;14.10;84.40
33827;DHT22;20128;45.582;5.298;2023-05-16T08:55:01;14.10;84.10
33827;DHT22;20128;45.582;5.298;2023-05-16T08:57:30;14.10;84.10
33827;DHT22;20128;45.582;5.298;2023-05-16T08:59:57;14.10;84.20
33827;DHT22;20128;45.582;5.298;2023-05-16T09:02:23;14.10;84.10
33827;DHT22;20128;45.582;5.298;2023-05-16T09:04:49;14.10;83.90
33827;DHT22;20128;45.582;5.298;2023-05-16T09:07:16;14.30;83.90
33827;DHT22;20128;45.582;5.298;2023-05-16T09:09:41;14.40;82.90
33827;DHT22;20128;45.582;5.298;2023-05-16T09:12:07;14.40;82.60
33827;DHT22;20128;45.582;5.298;2023-05-16T09:14:34;14.50;82.60
33827;DHT22;20128;45.582;5.298;2023-05-16T09:17:04;14.60;82.30
33827;DHT22;20128;45.582;5.298;2023-05-16T09:19:40;14.50;81.80
33827;DHT22;20128;45.582;5.298;2023-05-16T09:22:13;14.60;81.60
33827;DHT22;20128;45.582;5.298;2023-05-16T09:24:44;14.60;81.30
33827;DHT22;20128;45.582;5.298;2023-05-16T09:27:12;14.60;81.80
33827;DHT22;20128;45.582;5.298;2023-05-16T09:29:45;14.60;81.40
33827;DHT22;20128;45.582;5.298;2023-05-16T09:32:15;14.60;81.50
33827;DHT22;20128;45.582;5.298;2023-05-16T09:34:45;14.60;81.00
33827;DHT22;20128;45.582;5.298;2023-05-16T09:37:16;14.50;81.30
33827;DHT22;20128;45.582;5.298;2023-05-16T09:39:51;14.40;81.20
33827;DHT22;20128;45.582;5.298;2023-05-16T09:42:18;14.40;81.60
33827;DHT22;20128;45.582;5.298;2023-05-16T09:44:54;14.40;82.00
33827;DHT22;20128;45.582;5.298;2023-05-16T09:47:21;14.30;82.20
33827;DHT22;20128;45.582;5.298;2023-05-16T09:49:51;14.40;81.90
33827;DHT22;20128;45.582;5.298;2023-05-16T09:52:17;14.40;82.30
33827;DHT22;20128;45.582;5.298;2023-05-16T09:54:45;14.40;82.30
33827;DHT22;20128;45.582;5.298;2023-05-16T09:57:20;14.40;82.80
33827;DHT22;20128;45.582;5.298;2023-05-16T09:59:46;14.50;82.20
33827;DHT22;20128;45.582;5.298;2023-05-16T10:02:12;14.40;82.00
33827;DHT22;20128;45.582;5.298;2023-05-16T10:04:39;14.40;82.30
33827;DHT22;20128;45.582;5.298;2023-05-16T10:07:05;14.40;82.40
33827;DHT22;20128;45.582;5.298;2023-05-16T10:09:35;14.40;82.30
33827;DHT22;20128;45.582;5.298;2023-05-16T10:12:02;14.40;82.50
33827;DHT22;20128;45.582;5.298;2023-05-16T10:14:33;14.40;82.50
33827;DHT22;20128;45.582;5.298;2023-05-16T10:17:00;14.40;82.40
33827;DHT22;20128;45.582;5.298;2023-05-16T10:19:28;14.50;82.20
33827;DHT22;20128;45.582;5.298;2023-05-16T10:21:57;14.50;81.90
33827;DHT22;20128;45.582;5.298;2023-05-16T10:27:14;14.60;81.40
33827;DHT22;20128;45.582;5.298;2023-05-16T10:29:41;14.60;81.00
33827;DHT22;20128;45.582;5.298;2023-05-16T10:32:07;14.60;81.20
33827;DHT22;20128;45.582;5.298;2023-05-16T10:34:34;14.70;80.90
33827;DHT22;20128;45.582;5.298;2023-05-16T10:37:03;14.80;80.60
33827;DHT22;20128;45.582;5.298;2023-05-16T10:39:29;14.80;79.90
33827;DHT22;20128;45.582;5.298;2023-05-16T10:41:56;14.90;79.70
33827;DHT22;20128;45.582;5.298;2023-05-16T10:44:22;14.90;79.20
33827;DHT22;20128;45.582;5.298;2023-05-16T10:46:48;14.90;79.30
33827;DHT22;20128;45.582;5.298;2023-05-16T10:49:24;15.00;79.20
33827;DHT22;20128;45.582;5.298;2023-05-16T10:57:19;15.20;78.50
33827;DHT22;20128;45.582;5.298;2023-05-16T10:59:49;15.20;77.50
33827;DHT22;20128;45.582;5.298;2023-05-16T11:02:26;15.20;76.50
33827;DHT22;20128;45.582;5.298;2023-05-16T11:04:53;15.10;76.10
33827;DHT22;20128;45.582;5.298;2023-05-16T11:07:22;15.10;76.60
33827;DHT22;20128;45.582;5.298;2023-05-16T11:10:09;15.10;77.10
33827;DHT22;20128;45.582;5.298;2023-05-16T11:12:47;15.20;77.30
33827;DHT22;20128;45.582;5.298;2023-05-16T11:15:23;15.20;76.60
33827;DHT22;20128;45.582;5.298;2023-05-16T11:17:50;15.30;76.10
33827;DHT22;20128;45.582;5.298;2023-05-16T11:20:29;15.30;76.80
33827;DHT22;20128;45.582;5.298;2023-05-16T11:25:54;15.30;76.80
33827;DHT22;20128;45.582;5.298;2023-05-16T11:28:20;15.30;77.10
33827;DHT22;20128;45.582;5.298;2023-05-16T11:30:50;15.30;77.10
33827;DHT22;20128;45.582;5.298;2023-05-16T11:33:17;15.20;77.00
33827;DHT22;20128;45.582;5.298;2023-05-16T11:35:58;15.20;77.30
33827;DHT22;20128;45.582;5.298;2023-05-16T11:38:25;15.20;77.40
33827;DHT22;20128;45.582;5.298;2023-05-16T11:40:51;15.20;77.60
33827;DHT22;20128;45.582;5.298;2023-05-16T11:43:17;15.10;77.70
33827;DHT22;20128;45.582;5.298;2023-05-16T11:45:43;15.00;77.80
33827;DHT22;20128;45.582;5.298;2023-05-16T11:48:10;15.00;77.90
33827;DHT22;20128;45.582;5.298;2023-05-16T11:50:36;15.00;78.20
33827;DHT22;20128;45.582;5.298;2023-05-16T11:53:02;15.00;78.20
33827;DHT22;20128;45.582;5.298;2023-05-16T11:55:29;15.00;78.10
33827;DHT22;20128;45.582;5.298;2023-05-16T11:57:56;15.00;78.40
33827;DHT22;20128;45.582;5.298;2023-05-16T12:00:24;15.00;78.30
33827;DHT22;20128;45.582;5.298;2023-05-16T12:02:51;14.90;78.00
33827;DHT22;20128;45.582;5.298;2023-05-16T12:05:18;14.90;78.50
33827;DHT22;20128;45.582;5.298;2023-05-16T12:07:46;14.90;78.90
33827;DHT22;20128;45.582;5.298;2023-05-16T12:10:15;14.90;78.40
33827;DHT22;20128;45.582;5.298;2023-05-16T12:12:44;14.80;78.50
33827;DHT22;20128;45.582;5.298;2023-05-16T12:15:11;14.80;78.60
33827;DHT22;20128;45.582;5.298;2023-05-16T12:17:39;14.80;78.80
33827;DHT22;20128;45.582;5.298;2023-05-16T12:20:06;14.70;79.00
33827;DHT22;20128;45.582;5.298;2023-05-16T12:22:41;14.70;78.80
33827;DHT22;20128;45.582;5.298;2023-05-16T12:25:27;14.70;79.10
33827;DHT22;20128;45.582;5.298;2023-05-16T12:27:56;14.70;79.00
33827;DHT22;20128;45.582;5.298;2023-05-16T12:30:23;14.80;79.20
33827;DHT22;20128;45.582;5.298;2023-05-16T12:32:56;14.80;79.20
33827;DHT22;20128;45.582;5.298;2023-05-16T12:35:23;14.80;79.10
33827;DHT22;20128;45.582;5.298;2023-05-16T12:37:49;14.90;78.50
33827;DHT22;20128;45.582;5.298;2023-05-16T12:40:17;14.90;78.50
33827;DHT22;20128;45.582;5.298;2023-05-16T12:42:52;14.90;78.90
33827;DHT22;20128;45.582;5.298;2023-05-16T12:45:18;15.00;78.40
33827;DHT22;20128;45.582;5.298;2023-05-16T12:47:44;14.90;78.00
33827;DHT22;20128;45.582;5.298;2023-05-16T12:50:12;14.90;78.10
33827;DHT22;20128;45.582;5.298;2023-05-16T12:52:57;14.90;77.90
33827;DHT22;20128;45.582;5.298;2023-05-16T12:55:23;15.00;77.70
33827;DHT22;20128;45.582;5.298;2023-05-16T12:57:50;15.00;77.70
33827;DHT22;20128;45.582;5.298;2023-05-16T13:00:19;15.10;77.40
33827;DHT22;20128;45.582;5.298;2023-05-16T13:02:46;15.10;77.20
33827;DHT22;20128;45.582;5.298;2023-05-16T13:05:12;15.10;77.00
33827;DHT22;20128;45.582;5.298;2023-05-16T13:07:38;15.20;76.80
33827;DHT22;20128;45.582;5.298;2023-05-16T13:10:10;15.20;76.80
33827;DHT22;20128;45.582;5.298;2023-05-16T13:12:37;15.20;77.30
33827;DHT22;20128;45.582;5.298;2023-05-16T13:15:04;15.20;76.60
33827;DHT22;20128;45.582;5.298;2023-05-16T13:17:35;15.20;76.60
33827;DHT22;20128;45.582;5.298;2023-05-16T13:20:02;15.20;76.60
33827;DHT22;20128;45.582;5.298;2023-05-16T13:22:29;15.10;76.40
33827;DHT22;20128;45.582;5.298;2023-05-16T13:24:55;15.10;76.30
33827;DHT22;20128;45.582;5.298;2023-05-16T13:27:21;15.10;76.80
33827;DHT22;20128;45.582;5.298;2023-05-16T13:29:46;15.20;76.90
33827;DHT22;20128;45.582;5.298;2023-05-16T13:32:12;15.10;76.30
33827;DHT22;20128;45.582;5.298;2023-05-16T13:34:37;15.10;76.30
33827;DHT22;20128;45.582;5.298;2023-05-16T13:37:03;15.10;76.10
33827;DHT22;20128;45.582;5.298;2023-05-16T13:39:29;15.10;76.60
33827;DHT22;20128;45.582;5.298;2023-05-16T13:41:55;15.00;76.90
33827;DHT22;20128;45.582;5.298;2023-05-16T13:44:20;15.00;77.00
33827;DHT22;20128;45.582;5.298;2023-05-16T13:46:47;15.00;76.70
33827;DHT22;20128;45.582;5.298;2023-05-16T13:49:12;15.00;76.60
33827;DHT22;20128;45.582;5.298;2023-05-16T13:51:38;15.00;76.60
33827;DHT22;20128;45.582;5.298;2023-05-16T13:54:04;15.00;76.70
33827;DHT22;20128;45.582;5.298;2023-05-16T13:56:30;15.00;76.30
33827;DHT22;20128;45.582;5.298;2023-05-16T13:58:55;15.00;76.10
33827;DHT22;20128;45.582;5.298;2023-05-16T14:01:21;15.00;76.20
33827;DHT22;20128;45.582;5.298;2023-05-16T14:03:47;15.00;76.40
33827;DHT22;20128;45.582;5.298;2023-05-16T14:06:13;15.10;76.20
33827;DHT22;20128;45.582;5.298;2023-05-16T14:08:38;15.10;76.20
33827;DHT22;20128;45.582;5.298;2023-05-16T14:11:04;15.00;75.70
33827;DHT22;20128;45.582;5.298;2023-05-16T14:13:30;15.00;75.40
33827;DHT22;20128;45.582;5.298;2023-05-16T14:15:56;15.00;75.60
33827;DHT22;20128;45.582;5.298;2023-05-16T14:18:22;15.00;75.30
33827;DHT22;20128;45.582;5.298;2023-05-16T14:20:47;15.00;75.60
33827;DHT22;20128;45.582;5.298;2023-05-16T14:23:15;15.00;75.40
33827;DHT22;20128;45.582;5.298;2023-05-16T14:25:41;15.00;75.90
33827;DHT22;20128;45.582;5.298;2023-05-16T14:28:08;15.00;76.10
33827;DHT22;20128;45.582;5.298;2023-05-16T14:30:33;15.10;76.40
33827;DHT22;20128;45.582;5.298;2023-05-16T14:32:59;15.10;76.00
33827;DHT22;20128;45.582;5.298;2023-05-16T14:35:25;15.20;75.50
33827;DHT22;20128;45.582;5.298;2023-05-16T14:37:51;15.20;75.70
33827;DHT22;20128;45.582;5.298;2023-05-16T14:40:16;15.20;75.40
33827;DHT22;20128;45.582;5.298;2023-05-16T14:42:42;15.20;75.20
33827;DHT22;20128;45.582;5.298;2023-05-16T14:45:08;15.30;75.20
33827;DHT22;20128;45.582;5.298;2023-05-16T14:47:33;15.30;74.80
33827;DHT22;20128;45.582;5.298;2023-05-16T14:49:59;15.30;75.20
33827;DHT22;20128;45.582;5.298;2023-05-16T14:52:25;15.20;75.00
33827;DHT22;20128;45.582;5.298;2023-05-16T14:54:51;15.20;75.30
33827;DHT22;20128;45.582;5.298;2023-05-16T14:57:16;15.20;75.10
33827;DHT22;20128;45.582;5.298;2023-05-16T14:59:42;15.20;74.50
33827;DHT22;20128;45.582;5.298;2023-05-16T15:02:08;15.20;74.80
33827;DHT22;20128;45.582;5.298;2023-05-16T15:04:33;15.30;74.90
33827;DHT22;20128;45.582;5.298;2023-05-16T15:06:59;15.30;74.80
33827;DHT22;20128;45.582;5.298;2023-05-16T15:09:25;15.30;74.50
33827;DHT22;20128;45.582;5.298;2023-05-16T15:11:50;15.40;74.50
33827;DHT22;20128;45.582;5.298;2023-05-16T15:14:16;15.40;74.20
33827;DHT22;20128;45.582;5.298;2023-05-16T15:16:42;15.50;73.90
33827;DHT22;20128;45.582;5.298;2023-05-16T15:19:07;15.40;73.40
33827;DHT22;20128;45.582;5.298;2023-05-16T15:21:33;15.40;73.60
33827;DHT22;20128;45.582;5.298;2023-05-16T15:23:59;15.40;73.80
33827;DHT22;20128;45.582;5.298;2023-05-16T15:26:25;15.40;73.20
33827;DHT22;20128;45.582;5.298;2023-05-16T15:28:50;15.40;73.50
33827;DHT22;20128;45.582;5.298;2023-05-16T15:31:16;15.40;73.40
33827;DHT22;20128;45.582;5.298;2023-05-16T15:33:42;15.40;73.50
33827;DHT22;20128;45.582;5.298;2023-05-16T15:36:09;15.30;73.60
33827;DHT22;20128;45.582;5.298;2023-05-16T15:38:35;15.30;73.70
33827;DHT22;20128;45.582;5.298;2023-05-16T15:41:01;15.30;73.90
33827;DHT22;20128;45.582;5.298;2023-05-16T15:43:30;15.30;73.60
33827;DHT22;20128;45.582;5.298;2023-05-16T15:45:56;15.30;73.70
33827;DHT22;20128;45.582;5.298;2023-05-16T15:48:22;15.30;73.50
33827;DHT22;20128;45.582;5.298;2023-05-16T15:50:47;15.30;73.60
33827;DHT22;20128;45.582;5.298;2023-05-16T15:53:13;15.20;74.00
33827;DHT22;20128;45.582;5.298;2023-05-16T15:55:39;15.20;73.70